createdAt,value
2022-08-17T00:02:26.651Z,101821.66
2022-08-17T00:04:55.260Z,101825.53
2022-08-17T00:07:22.902Z,101822.06
2022-08-17T00:09:49.868Z,101822.19
2022-08-17T00:12:43.395Z,101834.47
2022-08-17T00:15:05.382Z,101829.75
2022-08-17T00:17:32.269Z,101824.63
2022-08-17T00:20:00.551Z,101829.41
2022-08-17T00:22:34.726Z,101837.34
2022-08-17T00:25:08.817Z,101820.22
2022-08-17T00:27:37.079Z,101822.97
2022-08-17T00:30:06.904Z,101817.13
2022-08-17T00:33:13.691Z,101812.09
2022-08-17T00:35:33.044Z,101821.09
2022-08-17T00:38:00.062Z,101821.09
2022-08-17T00:40:27.092Z,101814.22
2022-08-17T00:43:13.906Z,101816.91
2022-08-17T00:45:42.135Z,101826.97
2022-08-17T00:48:28.916Z,101819.78
2022-08-17T00:51:13.607Z,101832.81
2022-08-17T00:53:44.132Z,101835.22
2022-08-17T00:56:24.137Z,101822.94
2022-08-17T00:58:54.607Z,101825.13
2022-08-17T01:01:22.606Z,101821.19
2022-08-17T01:03:53.256Z,101814.56
2022-08-17T01:06:25.332Z,101819.19
2022-08-17T01:08:57.470Z,101819.63
2022-08-17T01:11:25.615Z,101821.72
2022-08-17T01:13:52.816Z,101815.31
2022-08-17T01:16:26.987Z,101814.31
2022-08-17T01:18:57.821Z,101812.75
2022-08-17T01:21:37.667Z,101806.00
2022-08-17T01:24:05.321Z,101811.47
2022-08-17T01:26:33.508Z,101813.50
2022-08-17T01:29:02.857Z,101819.88
2022-08-17T01:31:35.430Z,101820.91
2022-08-17T01:34:07.551Z,101821.91
2022-08-17T01:36:36.090Z,101826.25
2022-08-17T01:39:04.925Z,101827.09
2022-08-17T01:41:32.123Z,101826.03
2022-08-17T01:44:02.699Z,101827.72
2022-08-17T01:46:33.695Z,101829.34
2022-08-17T01:49:01.770Z,101833.63
2022-08-17T01:51:33.093Z,101828.84
2022-08-17T01:54:05.583Z,101825.66
2022-08-17T01:56:35.035Z,101821.84
2022-08-17T01:59:02.751Z,101813.19
2022-08-17T02:01:31.831Z,101811.47
2022-08-17T02:04:01.379Z,101814.72
2022-08-17T02:06:52.603Z,101810.81
2022-08-17T02:09:27.160Z,101816.22
2022-08-17T02:11:59.058Z,101810.00
2022-08-17T02:14:26.412Z,101801.50
2022-08-17T02:16:54.010Z,101794.88
2022-08-17T02:19:22.195Z,101797.88
2022-08-17T02:21:52.057Z,101803.75
2022-08-17T02:25:00.319Z,101804.63
2022-08-17T02:27:16.156Z,101803.75
2022-08-17T02:29:42.944Z,101802.00
2022-08-17T02:32:27.229Z,101795.84
2022-08-17T02:34:59.525Z,101801.94
2022-08-17T02:37:28.205Z,101796.59
2022-08-17T02:39:57.296Z,101797.09
2022-08-17T02:42:34.027Z,101792.03
2022-08-17T02:45:03.111Z,101807.25
2022-08-17T02:47:30.316Z,101807.66
2022-08-17T02:49:57.884Z,101812.28
2022-08-17T02:52:43.101Z,101816.50
2022-08-17T02:55:18.753Z,101817.59
2022-08-17T02:57:45.907Z,101815.84
2022-08-17T03:00:21.352Z,101811.59
2022-08-17T03:02:49.103Z,101807.94
2022-08-17T03:05:20.564Z,101810.34
2022-08-17T03:07:48.124Z,101811.16
2022-08-17T03:10:15.477Z,101812.16
2022-08-17T03:12:43.451Z,101811.84
2022-08-17T03:15:16.937Z,101817.53
2022-08-17T03:17:44.456Z,101818.91
2022-08-17T03:20:12.312Z,101829.81
2022-08-17T03:22:42.335Z,101813.84
2022-08-17T03:25:19.597Z,101821.97
2022-08-17T03:27:51.402Z,101826.00
2022-08-17T03:30:18.890Z,101828.47
2022-08-17T03:32:51.832Z,101831.03
2022-08-17T03:35:21.233Z,101836.16
2022-08-17T03:37:48.123Z,101833.75
2022-08-17T03:40:55.652Z,101840.03
2022-08-17T03:43:15.497Z,101829.50
2022-08-17T03:46:02.048Z,101836.78
2022-08-17T03:48:47.630Z,101834.00
2022-08-17T03:51:37.918Z,101826.38
2022-08-17T03:54:23.761Z,101831.72
2022-08-17T03:57:07.410Z,101823.97
2022-08-17T03:59:35.670Z,101834.38
2022-08-17T04:02:12.040Z,101827.41
2022-08-17T04:04:39.813Z,101823.13
2022-08-17T04:07:06.905Z,101828.38
2022-08-17T04:09:33.743Z,101835.63
2022-08-17T04:12:02.455Z,101823.59
2022-08-17T04:14:51.468Z,101820.28
2022-08-17T04:17:25.609Z,101819.53
2022-08-17T04:19:53.437Z,101827.44
2022-08-17T04:22:32.068Z,101826.66
2022-08-17T04:25:02.628Z,101816.91
2022-08-17T04:27:29.471Z,101818.84
2022-08-17T04:29:56.407Z,101824.25
2022-08-17T04:33:00.849Z,101821.91
2022-08-17T04:35:10.575Z,101830.09
2022-08-17T04:37:38.084Z,101840.72
2022-08-17T04:40:25.941Z,101837.50
2022-08-17T04:43:31.189Z,101841.44
2022-08-17T04:46:01.232Z,101835.97
2022-08-17T04:48:36.263Z,101833.53
2022-08-17T04:51:07.389Z,101841.28
2022-08-17T04:53:34.299Z,101842.25
2022-08-17T04:56:01.249Z,101840.41
2022-08-17T04:58:28.299Z,101838.50
2022-08-17T05:00:55.299Z,101834.94
2022-08-17T05:03:22.180Z,101843.34
2022-08-17T05:05:49.966Z,101841.16
2022-08-17T05:08:19.308Z,101832.22
2022-08-17T05:10:47.838Z,101844.53
2022-08-17T05:13:17.907Z,101848.31
2022-08-17T05:15:47.866Z,101848.78
2022-08-17T05:18:16.910Z,101850.88
2022-08-17T05:20:44.475Z,101846.66
2022-08-17T05:23:15.050Z,101852.31
2022-08-17T05:25:47.904Z,101838.25
2022-08-17T05:28:16.532Z,101831.28
2022-08-17T05:30:45.050Z,101830.25
2022-08-17T05:33:21.914Z,101852.81
2022-08-17T05:35:51.535Z,101849.63
2022-08-17T05:38:21.558Z,101835.28
2022-08-17T05:40:48.804Z,101835.25
2022-08-17T05:43:22.407Z,101837.16
2022-08-17T05:46:12.755Z,101844.22
2022-08-17T05:48:43.585Z,101835.59
2022-08-17T05:51:42.481Z,101841.53
2022-08-17T05:54:47.468Z,101837.91
2022-08-17T05:57:17.230Z,101845.44
2022-08-17T05:59:57.697Z,101854.09
2022-08-17T06:02:49.033Z,101853.03
2022-08-17T06:08:14.991Z,101859.59
2022-08-17T06:10:52.894Z,101855.66
2022-08-17T06:13:57.159Z,101850.84
2022-08-17T06:16:34.506Z,101870.91
2022-08-17T06:19:16.245Z,101855.31
2022-08-17T06:21:46.824Z,101856.75
2022-08-17T06:24:35.169Z,101854.09
2022-08-17T06:27:09.238Z,101870.06
2022-08-17T06:29:55.939Z,101879.34
2022-08-17T06:32:23.454Z,101871.91
2022-08-17T06:34:50.238Z,101880.69
2022-08-17T06:37:26.040Z,101879.59
2022-08-17T06:40:30.309Z,101883.53
2022-08-17T06:43:34.941Z,101881.31
2022-08-17T06:46:16.833Z,101879.38
2022-08-17T06:48:58.989Z,101889.72
2022-08-17T06:51:34.790Z,101883.16
2022-08-17T06:54:20.833Z,101877.41
2022-08-17T06:57:19.264Z,101870.50
2022-08-17T07:00:16.726Z,101868.66
2022-08-17T07:03:10.614Z,101873.03
2022-08-17T07:08:50.935Z,101877.09
2022-08-17T07:12:01.626Z,101866.34
2022-08-17T07:14:51.894Z,101868.84
2022-08-17T07:17:20.905Z,101871.25
2022-08-17T07:19:50.149Z,101872.38
2022-08-17T07:22:16.816Z,101867.44
2022-08-17T07:24:58.751Z,101863.44
2022-08-17T07:27:32.222Z,101868.75
2022-08-17T07:30:28.205Z,101868.44
2022-08-17T07:33:02.871Z,101872.84
2022-08-17T07:35:31.336Z,101866.72
2022-08-17T07:38:24.202Z,101865.13
2022-08-17T07:41:06.122Z,101864.41
2022-08-17T07:43:37.068Z,101848.44
2022-08-17T07:46:39.970Z,101859.59
2022-08-17T07:49:09.702Z,101863.09
2022-08-17T07:51:44.272Z,101870.38
2022-08-17T07:54:22.654Z,101862.19
2022-08-17T07:56:53.089Z,101857.91
2022-08-17T07:59:32.626Z,101873.53
2022-08-17T08:02:06.033Z,101870.63
2022-08-17T08:04:59.849Z,101855.41
2022-08-17T08:07:31.729Z,101867.19
2022-08-17T08:10:07.785Z,101875.78
2022-08-17T08:12:45.081Z,101860.00
2022-08-17T08:15:22.798Z,101867.41
2022-08-17T08:17:57.658Z,101880.94
2022-08-17T08:20:53.398Z,101878.66
2022-08-17T08:23:33.679Z,101878.28
2022-08-17T08:26:20.628Z,101874.78
2022-08-17T08:28:53.007Z,101880.69
2022-08-17T08:31:50.934Z,101882.22
2022-08-17T08:35:01.547Z,101874.53
2022-08-17T08:37:45.679Z,101878.84
2022-08-17T08:40:35.718Z,101875.53
2022-08-17T08:43:11.787Z,101879.09
2022-08-17T08:45:59.362Z,101871.13
2022-08-17T08:48:52.910Z,101857.31
2022-08-17T08:51:59.689Z,101845.50
2022-08-17T08:54:46.542Z,101866.53
2022-08-17T08:57:34.368Z,101863.41
2022-08-17T09:00:21.324Z,101862.38
2022-08-17T09:03:09.518Z,101857.91
2022-08-17T09:05:53.311Z,101847.56
2022-08-17T09:08:39.507Z,101853.03
2022-08-17T09:11:31.129Z,101861.63
2022-08-17T09:14:21.219Z,101856.78
2022-08-17T09:17:04.960Z,101858.88
2022-08-17T09:19:46.577Z,101855.50
2022-08-17T09:22:25.336Z,101849.97
2022-08-17T09:24:58.569Z,101853.94
2022-08-17T09:27:35.284Z,101860.84
2022-08-17T09:30:08.636Z,101844.25
2022-08-17T09:32:47.230Z,101858.19
2022-08-17T09:35:25.299Z,101865.78
2022-08-17T09:38:20.618Z,101854.44
2022-08-17T09:40:57.621Z,101853.81
2022-08-17T09:43:41.794Z,101848.47
2022-08-17T09:46:11.616Z,101860.75
2022-08-17T09:49:36.282Z,101855.97
2022-08-17T09:52:10.129Z,101846.78
2022-08-17T09:54:41.084Z,101857.09
2022-08-17T09:57:29.143Z,101840.53
2022-08-17T09:59:59.558Z,101849.25
2022-08-17T10:02:55.715Z,101846.00
2022-08-17T10:05:26.012Z,101837.81
2022-08-17T10:08:23.479Z,101848.63
2022-08-17T10:11:08.315Z,101846.06
2022-08-17T10:13:41.406Z,101854.25
2022-08-17T10:16:32.349Z,101851.84
2022-08-17T10:19:02.282Z,101830.78
2022-08-17T10:22:01.011Z,101850.03
2022-08-17T10:25:23.739Z,101836.34
2022-08-17T10:27:57.831Z,101837.53
2022-08-17T10:30:33.558Z,101836.50
2022-08-17T10:33:03.520Z,101835.31
2022-08-17T10:35:49.172Z,101833.00
2022-08-17T10:38:42.206Z,101835.84
2022-08-17T10:41:28.580Z,101821.25
2022-08-17T10:44:38.861Z,101824.44
2022-08-17T10:47:16.978Z,101828.72
2022-08-17T10:49:52.634Z,101811.78
2022-08-17T10:52:24.960Z,101827.28
2022-08-17T10:54:51.901Z,101835.75
2022-08-17T10:57:28.313Z,101833.38
2022-08-17T10:59:59.996Z,101834.06
2022-08-17T11:02:39.753Z,101847.53
2022-08-17T11:05:29.151Z,101846.75
2022-08-17T11:08:05.657Z,101837.38
2022-08-17T11:11:09.882Z,101824.50
2022-08-17T11:13:45.450Z,101826.84
2022-08-17T11:16:40.611Z,101832.81
2022-08-17T11:19:34.126Z,101841.44
2022-08-17T11:22:06.734Z,101825.22
2022-08-17T11:24:48.174Z,101821.72
2022-08-17T11:27:32.635Z,101808.66
2022-08-17T11:30:03.024Z,101833.19
2022-08-17T11:32:34.822Z,101838.78
2022-08-17T11:35:16.347Z,101840.50
2022-08-17T11:38:16.420Z,101840.13
2022-08-17T11:41:09.408Z,101823.97
2022-08-17T11:43:55.648Z,101830.63
2022-08-17T11:47:19.033Z,101831.56
2022-08-17T11:50:10.542Z,101819.50
2022-08-17T11:52:39.949Z,101815.28
2022-08-17T11:55:34.149Z,101818.81
2022-08-17T11:58:01.970Z,101810.00
2022-08-17T12:00:52.020Z,101799.03
2022-08-17T12:03:22.736Z,101803.84
2022-08-17T12:05:53.601Z,101812.56
2022-08-17T12:08:22.051Z,101809.66
2022-08-17T12:11:11.814Z,101799.53
2022-08-17T12:13:52.212Z,101778.00
2022-08-17T12:16:21.682Z,101788.69
2022-08-17T12:18:57.705Z,101764.00
2022-08-17T12:21:40.890Z,101790.94
2022-08-17T12:24:31.683Z,101735.53
2022-08-17T12:27:04.570Z,101710.94
2022-08-17T12:29:35.600Z,101791.09
2022-08-17T12:32:07.290Z,101797.25
2022-08-17T12:34:40.054Z,101785.25
2022-08-17T12:37:15.319Z,101782.78
2022-08-17T12:39:53.350Z,101775.50
2022-08-17T12:42:27.443Z,101775.13
2022-08-17T12:44:54.280Z,101792.50
2022-08-17T12:47:23.132Z,101792.28
2022-08-17T12:49:52.697Z,101790.69
2022-08-17T12:52:29.697Z,101791.59
2022-08-17T12:54:56.467Z,101801.25
2022-08-17T12:57:25.827Z,101794.84
2022-08-17T12:59:59.000Z,101794.44
2022-08-17T13:02:40.305Z,101797.13
2022-08-17T13:05:17.959Z,101786.97
2022-08-17T13:07:46.741Z,101770.97
2022-08-17T13:10:19.607Z,101781.31
2022-08-17T13:12:48.162Z,101780.13
2022-08-17T13:15:44.379Z,101772.31
2022-08-17T13:18:33.934Z,101762.06
2022-08-17T13:21:01.310Z,101760.44
2022-08-17T13:23:29.811Z,101757.38
2022-08-17T13:26:03.543Z,101754.47
2022-08-17T13:28:36.294Z,101752.63
2022-08-17T13:31:21.704Z,101749.31
2022-08-17T13:33:48.562Z,101743.75
2022-08-17T13:36:32.157Z,101743.34
2022-08-17T13:39:21.933Z,101747.66
2022-08-17T13:41:50.895Z,101732.09
2022-08-17T13:44:40.600Z,101737.25
2022-08-17T13:47:19.017Z,101738.28
2022-08-17T13:49:49.078Z,101742.69
2022-08-17T13:52:31.512Z,101748.75
2022-08-17T13:55:05.512Z,101751.16
2022-08-17T13:57:32.441Z,101746.19
2022-08-17T14:00:35.569Z,101739.69
2022-08-17T14:03:04.103Z,101745.91
2022-08-17T14:05:32.454Z,101750.19
2022-08-17T14:08:06.728Z,101751.84
2022-08-17T14:10:36.667Z,101754.69
2022-08-17T14:13:04.147Z,101730.41
2022-08-17T14:15:53.907Z,101749.19
2022-08-17T14:18:35.716Z,101736.78
2022-08-17T14:21:08.597Z,101732.56
2022-08-17T14:23:36.827Z,101743.22
2022-08-17T14:26:04.866Z,101744.16
2022-08-17T14:28:31.994Z,101744.56
2022-08-17T14:31:00.862Z,101746.88
2022-08-17T14:33:29.071Z,101735.31
2022-08-17T14:35:57.639Z,101734.78
2022-08-17T14:38:24.804Z,101723.06
2022-08-17T14:40:52.087Z,101720.09
2022-08-17T14:43:20.577Z,101720.06
2022-08-17T14:45:47.799Z,101734.91
2022-08-17T14:48:14.622Z,101720.47
2022-08-17T14:50:43.299Z,101732.97
2022-08-17T14:53:16.548Z,101718.38
2022-08-17T14:55:46.860Z,101723.03
2022-08-17T14:58:14.252Z,101697.59
2022-08-17T15:00:43.173Z,101714.59
2022-08-17T15:03:11.613Z,101712.94
2022-08-17T15:08:07.234Z,101708.41
2022-08-17T15:10:34.483Z,101713.09
2022-08-17T15:13:01.445Z,101710.72
2022-08-17T15:15:29.234Z,101716.66
2022-08-17T15:17:56.274Z,101715.75
2022-08-17T15:20:28.247Z,101719.22
2022-08-17T15:22:57.434Z,101722.06
2022-08-17T15:25:32.641Z,101718.34
2022-08-17T15:28:00.407Z,101721.03
2022-08-17T15:30:28.448Z,101717.25
2022-08-17T15:32:57.812Z,101718.66
2022-08-17T15:35:29.043Z,101716.41
2022-08-17T15:38:06.207Z,101721.31
2022-08-17T15:40:37.561Z,101716.72
2022-08-17T15:43:11.733Z,101708.97
2022-08-17T15:45:39.562Z,101717.97
2022-08-17T15:48:07.121Z,101707.16
2022-08-17T15:50:34.219Z,101719.47
2022-08-17T15:53:02.353Z,101725.91
2022-08-17T15:55:31.663Z,101736.00
2022-08-17T15:57:59.296Z,101730.94
2022-08-17T16:00:28.808Z,101727.69
2022-08-17T16:03:46.107Z,101719.91
2022-08-17T16:05:45.000Z,101714.56
2022-08-17T16:08:18.533Z,101721.31
2022-08-17T16:10:48.746Z,101721.56
2022-08-17T16:13:17.166Z,101714.00
2022-08-17T16:15:49.722Z,101710.13
2022-08-17T16:18:31.236Z,101718.44
2022-08-17T16:21:23.936Z,101716.13
2022-08-17T16:23:56.416Z,101707.69
2022-08-17T16:26:24.588Z,101714.72
2022-08-17T16:28:51.641Z,101709.38
2022-08-17T16:31:18.892Z,101708.31
2022-08-17T16:34:16.046Z,101701.47
2022-08-17T16:36:33.311Z,101688.97
2022-08-17T16:39:01.638Z,101685.81
2022-08-17T16:41:44.658Z,101687.22
2022-08-17T16:44:20.619Z,101685.44
2022-08-17T16:46:48.932Z,101684.31
2022-08-17T16:49:35.358Z,101679.94
2022-08-17T16:52:04.696Z,101673.16
2022-08-17T16:54:31.646Z,101677.63
2022-08-17T16:56:58.478Z,101667.84
2022-08-17T16:59:30.088Z,101672.41
2022-08-17T17:02:05.065Z,101667.84
2022-08-17T17:04:35.092Z,101661.38
2022-08-17T17:08:03.770Z,101667.22
2022-08-17T17:10:43.756Z,101671.00
2022-08-17T17:13:21.131Z,101655.53
2022-08-17T17:15:48.059Z,101668.91
2022-08-17T17:18:16.335Z,101657.88
2022-08-17T17:20:50.858Z,101657.81
2022-08-17T17:23:41.411Z,101660.41
2022-08-17T17:26:14.486Z,101655.38
2022-08-17T17:28:42.869Z,101652.94
2022-08-17T17:31:16.581Z,101657.09
2022-08-17T17:33:52.751Z,101656.16
2022-08-17T17:36:37.892Z,101655.25
2022-08-17T17:39:13.515Z,101650.47
2022-08-17T17:41:57.449Z,101640.56
2022-08-17T17:44:47.283Z,101640.66
2022-08-17T17:47:16.788Z,101634.84
2022-08-17T17:49:49.208Z,101630.84
2022-08-17T17:52:38.526Z,101635.09
2022-08-17T17:55:45.666Z,101635.22
2022-08-17T17:58:44.144Z,101630.13
2022-08-17T18:01:43.400Z,101632.22
2022-08-17T18:04:30.579Z,101616.63
2022-08-17T18:07:44.870Z,101622.16
2022-08-17T18:10:40.209Z,101621.22
2022-08-17T18:13:28.653Z,101616.22
2022-08-17T18:15:56.801Z,101610.78
2022-08-17T18:18:38.161Z,101610.31
2022-08-17T18:21:24.081Z,101605.16
2022-08-17T18:24:03.775Z,101607.34
2022-08-17T18:26:33.944Z,101608.88
2022-08-17T18:29:02.739Z,101614.94
2022-08-17T18:31:29.931Z,101604.19
2022-08-17T18:34:45.876Z,101607.94
2022-08-17T18:37:11.029Z,101598.16
2022-08-17T18:39:43.035Z,101614.47
2022-08-17T18:42:26.726Z,101605.63
2022-08-17T18:44:55.303Z,101610.00
2022-08-17T18:47:29.536Z,101613.00
2022-08-17T18:50:18.230Z,101606.13
2022-08-17T18:52:48.367Z,101607.44
2022-08-17T18:55:23.954Z,101604.28
2022-08-17T18:57:52.646Z,101609.00
2022-08-17T19:00:40.709Z,101612.97
2022-08-17T19:03:18.533Z,101607.28
2022-08-17T19:05:50.024Z,101614.16
2022-08-17T19:08:24.445Z,101609.19
2022-08-17T19:11:10.079Z,101602.66
2022-08-17T19:13:57.909Z,101602.63
2022-08-17T19:16:29.319Z,101602.13
2022-08-17T19:19:10.182Z,101607.66
2022-08-17T19:21:43.268Z,101615.09
2022-08-17T19:24:19.878Z,101608.91
2022-08-17T19:26:56.582Z,101607.69
2022-08-17T19:29:44.243Z,101613.69
2022-08-17T19:32:16.527Z,101622.03
2022-08-17T19:34:44.825Z,101625.84
2022-08-17T19:37:37.650Z,101615.19
2022-08-17T19:40:50.583Z,101618.69
2022-08-17T19:43:25.600Z,101617.34
2022-08-17T19:46:15.390Z,101614.28
2022-08-17T19:48:57.949Z,101620.88
2022-08-17T19:51:36.289Z,101616.22
2022-08-17T19:54:20.586Z,101618.75
2022-08-17T19:57:10.182Z,101616.44
2022-08-17T20:00:02.078Z,101626.31
2022-08-17T20:02:35.918Z,101629.41
2022-08-17T20:05:08.963Z,101620.91
2022-08-17T20:07:51.542Z,101630.25
2022-08-17T20:10:54.661Z,101623.47
2022-08-17T20:13:34.026Z,101615.09
2022-08-17T20:16:02.800Z,101619.78
2022-08-17T20:18:38.489Z,101614.81
2022-08-17T20:21:27.195Z,101616.94
2022-08-17T20:24:13.289Z,101623.28
2022-08-17T20:27:10.184Z,101618.53
2022-08-17T20:30:11.078Z,101621.91
2022-08-17T20:32:41.189Z,101616.41
2022-08-17T20:35:30.562Z,101619.81
2022-08-17T20:37:57.696Z,101613.56
2022-08-17T20:40:38.518Z,101612.69
2022-08-17T20:43:30.201Z,101611.50
2022-08-17T20:46:21.524Z,101607.91
2022-08-17T20:48:52.831Z,101601.63
2022-08-17T20:51:34.868Z,101591.53
2022-08-17T20:54:42.064Z,101603.06
2022-08-17T20:57:14.311Z,101606.09
2022-08-17T20:59:45.107Z,101601.16
2022-08-17T21:02:20.207Z,101602.38
2022-08-17T21:05:00.349Z,101608.81
2022-08-17T21:07:30.365Z,101597.88
2022-08-17T21:10:39.295Z,101595.66
2022-08-17T21:13:12.607Z,101593.41
2022-08-17T21:15:42.661Z,101597.41
2022-08-17T21:18:18.670Z,101592.69
2022-08-17T21:21:07.472Z,101578.69
2022-08-17T21:24:06.530Z,101578.13
2022-08-17T21:26:52.211Z,101590.69
2022-08-17T21:29:31.888Z,101576.44
2022-08-17T21:32:00.630Z,101573.91
2022-08-17T21:34:45.462Z,101572.66
2022-08-17T21:37:24.026Z,101576.53
2022-08-17T21:40:13.753Z,101569.06
2022-08-17T21:42:49.755Z,101569.84
2022-08-17T21:45:36.767Z,101579.72
2022-08-17T21:48:24.860Z,101568.91
2022-08-17T21:51:14.181Z,101570.09
2022-08-17T21:53:56.067Z,101566.91
2022-08-17T21:56:29.683Z,101561.81
2022-08-17T21:59:01.345Z,101558.63
2022-08-17T22:01:34.815Z,101555.22
2022-08-17T22:04:04.241Z,101558.13
2022-08-17T22:06:38.611Z,101554.72
2022-08-17T22:09:10.776Z,101556.59
2022-08-17T22:11:53.853Z,101545.41
2022-08-17T22:14:52.532Z,101543.50
2022-08-17T22:17:26.758Z,101529.19
2022-08-17T22:20:01.740Z,101542.19
2022-08-17T22:23:15.321Z,101543.31
2022-08-17T22:26:02.496Z,101544.63
2022-08-17T22:28:38.912Z,101524.72
2022-08-17T22:31:08.372Z,101538.28
2022-08-17T22:33:46.732Z,101532.34
2022-08-17T22:36:13.779Z,101532.53
2022-08-17T22:38:42.004Z,101530.16
2022-08-17T22:41:36.483Z,101518.78
2022-08-17T22:44:28.290Z,101518.84
2022-08-17T22:46:56.079Z,101524.22
2022-08-17T22:49:37.008Z,101516.31
2022-08-17T22:52:07.217Z,101513.69
2022-08-17T22:54:52.761Z,101509.44
2022-08-17T22:57:56.725Z,101498.38
2022-08-17T23:00:41.947Z,101500.50
2022-08-17T23:03:14.214Z,101504.09
2022-08-17T23:05:45.207Z,101500.50
2022-08-17T23:08:13.991Z,101491.84
2022-08-17T23:10:43.101Z,101488.47
2022-08-17T23:13:12.180Z,101483.78
2022-08-17T23:15:42.239Z,101476.81
2022-08-17T23:18:09.546Z,101475.38
2022-08-17T23:20:39.464Z,101480.38
2022-08-17T23:23:09.130Z,101477.75
2022-08-17T23:25:36.842Z,101474.34
2022-08-17T23:28:09.308Z,101471.72
2022-08-17T23:30:39.933Z,101462.13
2022-08-17T23:33:18.265Z,101475.28
2022-08-17T23:35:45.510Z,101461.28
2022-08-17T23:38:13.892Z,101461.28
2022-08-17T23:40:41.194Z,101450.63
2022-08-17T23:43:23.491Z,101444.78
2022-08-17T23:45:54.121Z,101445.47
2022-08-17T23:48:36.132Z,101440.00
2022-08-17T23:51:19.192Z,101430.13
2022-08-17T23:53:50.234Z,101429.38
2022-08-17T23:56:23.015Z,101425.06
2022-08-17T23:58:50.017Z,101411.47
